Portada
METAR-TAF:

METAR-TAF

Aeroports :

El Monte Airport

El Monte, Califòrnia, Estats Units d'Amèrica

latitud: 34-05N, longitud: 118-02W, altitud: 90 m

Observació

L'informe es va fer fa 54 minuts, a les 14:47 UTC
Vent calma
Temperatura 14°C
Humitat 88%
Pressió 1018 hPa
Visibilitat: 8.0 km
Cel cobert a una alçada de 900 ft
calitja,

METAR: KEMT 271447Z 00000KT 5SM HZ OVC009 14/12 A3006

Hora: 08:41 (15:41 UTC)


TAF: manca

Observacions i pronòstics meteorològics de més de 4000 aeroports (METAR i TAF).

Les estacions disponibles són els punts grocs i vermells al mapa.

Posi el ratolí al punt desitjat per veure el nom de l'estació.

Feu clic per veure les observacions i els pronòstics meteorològics.

Per canviar el mapa: feu clic els botons verds amb una creu de color negre per apropar; al botó verd amb un guió per allunyar la imatge; o en les fletxes verdes per a mapes adjacents.


METAR-TAF: